Time;durP1;ratioP1;P1;durP2;ratioP2;P2;SDS_P1;SDS_P2;PMS_P1;PMS_P2;Temp;Humidity;BMP_temperature;BMP_pressure;BME280_temperature;BME280_humidity;BME280_pressure;Samples;Min_cycle;Max_cycle;Signal;HPM_P1;HPM_P2
2021/01/18 00:00:13;;;;;;;19.92;14.00;;;4.30;99.90;;;;;;5003572;28;20436;-79
2021/01/18 00:02:39;;;;;;;28.30;14.35;;;4.30;99.90;;;;;;5010704;28;20255;-79
2021/01/18 00:05:06;;;;;;;29.85;15.82;;;4.20;99.90;;;;;;5009265;28;20236;-79
2021/01/18 00:07:47;;;;;;;20.02;14.25;;;4.20;99.90;;;;;;5010432;28;20635;-79
2021/01/18 00:10:15;;;;;;;21.45;13.25;;;4.30;99.90;;;;;;5002619;28;20227;-79
2021/01/18 00:12:49;;;;;;;20.08;14.93;;;4.30;99.90;;;;;;5014343;28;20240;-79
2021/01/18 00:15:16;;;;;;;34.25;15.35;;;4.20;99.90;;;;;;5014075;28;20663;-79
2021/01/18 00:17:42;;;;;;;24.08;14.88;;;4.30;99.90;;;;;;5014548;28;20209;-79
2021/01/18 00:20:13;;;;;;;26.20;15.07;;;4.30;99.90;;;;;;4996666;28;20305;-79
2021/01/18 00:22:43;;;;;;;18.05;15.02;;;4.30;99.90;;;;;;4993614;28;20214;-79
2021/01/18 00:25:11;;;;;;;20.48;14.50;;;4.30;99.90;;;;;;5011380;28;20193;-79
2021/01/18 00:27:37;;;;;;;25.38;15.00;;;4.30;99.90;;;;;;5011461;28;20222;-79
2021/01/18 00:30:15;;;;;;;25.17;14.35;;;4.20;99.90;;;;;;4995281;28;20175;-79
2021/01/18 00:32:41;;;;;;;20.70;12.63;;;4.30;99.90;;;;;;4997051;28;20210;-79
2021/01/18 00:35:09;;;;;;;24.87;15.43;;;4.30;99.90;;;;;;5014951;28;20209;-79
2021/01/18 00:37:42;;;;;;;19.63;13.63;;;4.30;99.90;;;;;;5011861;28;20209;-79
2021/01/18 00:40:10;;;;;;;22.67;14.73;;;4.20;99.90;;;;;;5001154;28;20178;-79
2021/01/18 00:42:35;;;;;;;22.15;14.45;;;4.20;99.90;;;;;;5012894;28;20271;-79
2021/01/18 00:45:02;;;;;;;21.67;15.27;;;4.30;99.90;;;;;;4975287;28;20199;-79
2021/01/18 00:47:27;;;;;;;19.13;14.07;;;4.20;99.90;;;;;;4973525;28;20277;-79
2021/01/18 00:49:53;;;;;;;16.30;12.67;;;4.20;99.90;;;;;;5012989;28;20174;-79
2021/01/18 00:52:18;;;;;;;22.77;13.77;;;4.10;99.90;;;;;;5008995;28;20218;-79
2021/01/18 00:54:44;;;;;;;19.33;12.20;;;4.10;99.90;;;;;;4994686;28;20666;-79
2021/01/18 00:57:10;;;;;;;21.30;12.80;;;4.10;99.90;;;;;;4996512;28;20249;-79
2021/01/18 00:59:35;;;;;;;16.53;13.17;;;4.10;99.90;;;;;;5014000;28;20601;-79
2021/01/18 01:02:01;;;;;;;23.63;12.63;;;4.10;99.90;;;;;;5013019;28;20221;-79
2021/01/18 01:04:27;;;;;;;17.13;11.67;;;4.10;99.90;;;;;;5014237;28;20244;-79
2021/01/18 01:06:52;;;;;;;16.47;11.10;;;4.10;99.90;;;;;;5000223;28;20588;-79
2021/01/18 01:09:18;;;;;;;19.50;10.93;;;4.10;99.90;;;;;;5003889;28;20174;-79
2021/01/18 01:11:45;;;;;;;19.90;11.03;;;4.20;99.90;;;;;;5013426;28;20656;-79
2021/01/18 01:14:11;;;;;;;15.88;9.27;;;4.20;99.90;;;;;;5005710;28;20198;-79
2021/01/18 01:16:37;;;;;;;20.92;9.90;;;4.20;99.90;;;;;;4993611;28;20186;-79
2021/01/18 01:19:03;;;;;;;13.50;7.77;;;4.20;99.90;;;;;;5008782;28;20611;-79
2021/01/18 01:21:29;;;;;;;16.03;9.47;;;4.20;99.90;;;;;;5013454;28;20444;-79
2021/01/18 01:23:55;;;;;;;18.07;9.60;;;4.20;99.90;;;;;;5001313;28;20544;-79
2021/01/18 01:26:21;;;;;;;18.38;9.25;;;4.10;99.90;;;;;;4995664;28;20194;-79
2021/01/18 01:28:47;;;;;;;18.38;8.75;;;4.10;99.90;;;;;;5013105;28;20253;-79
2021/01/18 01:31:13;;;;;;;16.10;9.30;;;4.10;99.90;;;;;;5011886;28;20178;-79
2021/01/18 01:33:38;;;;;;;15.70;8.83;;;4.10;99.90;;;;;;5011760;28;20595;-79
2021/01/18 01:36:04;;;;;;;14.00;8.90;;;4.10;99.90;;;;;;5013403;28;20525;-78
2021/01/18 01:38:33;;;;;;;12.00;8.50;;;4.20;99.90;;;;;;4994897;28;20218;-77
2021/01/18 01:41:00;;;;;;;16.92;9.57;;;4.20;99.90;;;;;;4992863;28;20201;-77
2021/01/18 01:43:25;;;;;;;13.48;9.27;;;4.20;99.90;;;;;;5010641;28;20245;-77
2021/01/18 01:45:51;;;;;;;16.53;8.97;;;4.20;99.90;;;;;;5013895;28;20170;-77
2021/01/18 01:48:18;;;;;;;15.27;10.17;;;4.10;99.90;;;;;;4994553;28;20213;-78
2021/01/18 01:50:44;;;;;;;10.60;8.25;;;4.10;99.90;;;;;;5012339;28;20649;-77
2021/01/18 01:53:26;;;;;;;14.02;9.65;;;4.10;99.90;;;;;;4993668;28;20217;-77
2021/01/18 01:55:53;;;;;;;14.90;8.40;;;4.10;99.90;;;;;;4995905;28;20165;-77
2021/01/18 01:58:20;;;;;;;10.27;8.20;;;4.10;99.90;;;;;;5004298;28;20206;-77
2021/01/18 02:00:46;;;;;;;13.82;9.65;;;4.00;99.90;;;;;;4994454;28;20181;-77
2021/01/18 02:03:30;;;;;;;11.80;8.32;;;4.10;99.90;;;;;;5012633;28;20580;-77
2021/01/18 02:05:56;;;;;;;10.07;7.63;;;4.10;99.90;;;;;;4993638;28;20166;-77
2021/01/18 02:08:22;;;;;;;18.25;8.45;;;4.10;99.90;;;;;;5012843;28;20218;-77
2021/01/18 02:10:47;;;;;;;12.50;8.90;;;4.10;99.90;;;;;;5003665;28;20242;-77
2021/01/18 02:13:16;;;;;;;14.93;9.93;;;4.10;99.90;;;;;;4992512;28;20272;-77
2021/01/18 02:16:05;;;;;;;13.23;8.98;;;4.10;99.90;;;;;;5001625;28;20533;-77
2021/01/18 02:18:42;;;;;;;17.45;9.35;;;4.10;99.90;;;;;;5007293;28;20238;-78
2021/01/18 02:21:26;;;;;;;15.07;8.90;;;4.00;99.90;;;;;;4993470;28;20166;-77
2021/01/18 02:24:14;;;;;;;14.85;8.80;;;4.00;99.90;;;;;;4992070;28;20265;-78
2021/01/18 02:27:14;;;;;;;12.85;9.00;;;3.90;99.90;;;;;;4980265;28;20174;-78
2021/01/18 02:30:02;;;;;;;19.27;9.00;;;4.00;99.90;;;;;;5013153;28;20189;-77
2021/01/18 02:33:01;;;;;;;19.65;11.07;;;4.00;99.90;;;;;;5010760;28;20217;-78
2021/01/18 02:35:54;;;;;;;12.60;8.40;;;4.00;99.90;;;;;;5012821;28;20170;-78
2021/01/18 02:38:42;;;;;;;14.63;9.85;;;4.00;99.90;;;;;;4994412;28;20214;-78
2021/01/18 02:41:43;;;;;;;17.55;10.45;;;3.90;99.90;;;;;;4974029;28;20673;-77
2021/01/18 02:44:13;;;;;;;13.95;9.60;;;3.90;99.90;;;;;;4993013;28;20581;-77
2021/01/18 02:46:40;;;;;;;14.52;9.90;;;3.90;99.90;;;;;;4999952;28;20220;-78
2021/01/18 02:49:07;;;;;;;19.05;10.05;;;3.90;99.90;;;;;;5012941;28;20615;-77
2021/01/18 02:51:36;;;;;;;9.55;8.55;;;3.80;99.90;;;;;;5005052;28;20483;-77
2021/01/18 02:54:02;;;;;;;14.15;8.30;;;3.80;99.90;;;;;;4992459;28;20727;-78
2021/01/18 02:56:33;;;;;;;11.30;7.85;;;3.80;99.90;;;;;;5004252;28;20672;-77
2021/01/18 02:59:01;;;;;;;16.52;9.13;;;3.90;99.90;;;;;;5011892;28;20217;-77
2021/01/18 03:01:50;;;;;;;14.77;9.05;;;3.80;99.90;;;;;;4995799;28;20178;-78
2021/01/18 03:04:22;;;;;;;11.90;9.05;;;3.80;99.90;;;;;;4992264;28;20779;-77
2021/01/18 03:06:56;;;;;;;15.95;9.20;;;3.80;99.90;;;;;;4992158;28;20186;-78
2021/01/18 03:09:29;;;;;;;15.38;8.20;;;3.80;99.90;;;;;;4975085;28;20189;-77
2021/01/18 03:12:03;;;;;;;13.25;8.98;;;3.80;99.90;;;;;;4991962;28;20245;-78
2021/01/18 03:14:32;;;;;;;10.95;9.10;;;3.90;99.90;;;;;;4998244;28;20294;-77
2021/01/18 03:16:58;;;;;;;10.80;8.63;;;3.80;99.90;;;;;;5010529;28;20206;-77
2021/01/18 03:19:44;;;;;;;16.65;10.32;;;3.80;99.90;;;;;;5006368;28;20257;-77
2021/01/18 03:22:21;;;;;;;14.30;9.55;;;3.80;99.90;;;;;;4991418;28;20210;-77
2021/01/18 03:24:47;;;;;;;16.05;10.25;;;3.80;99.90;;;;;;4982166;28;20193;-77
2021/01/18 03:27:13;;;;;;;16.13;12.20;;;3.80;99.90;;;;;;5011282;28;20210;-77
2021/01/18 03:29:39;;;;;;;19.58;13.30;;;3.80;99.90;;;;;;4998501;28;20212;-77
2021/01/18 03:32:06;;;;;;;21.00;12.53;;;3.90;99.90;;;;;;4991853;28;20214;-77
2021/01/18 03:34:33;;;;;;;18.15;11.95;;;3.80;99.90;;;;;;5003393;28;20437;-77
2021/01/18 03:36:58;;;;;;;19.73;12.30;;;3.90;99.90;;;;;;4992557;28;20693;-77
2021/01/18 03:39:24;;;;;;;21.20;12.87;;;3.90;99.90;;;;;;5001921;28;20217;-77
2021/01/18 03:41:50;;;;;;;16.43;12.40;;;3.90;99.90;;;;;;5011103;28;20460;-77
2021/01/18 03:44:16;;;;;;;23.07;14.97;;;3.80;99.90;;;;;;5001374;28;20285;-77
2021/01/18 03:46:45;;;;;;;22.20;12.60;;;3.90;99.90;;;;;;4990515;28;20159;-78
2021/01/18 03:49:12;;;;;;;22.08;12.65;;;3.90;99.90;;;;;;4988304;28;20208;-77
2021/01/18 03:51:38;;;;;;;22.67;14.48;;;3.80;99.90;;;;;;4993526;28;20702;-77
2021/01/18 03:54:03;;;;;;;21.40;13.60;;;3.90;99.90;;;;;;4998066;28;20292;-77
2021/01/18 03:56:29;;;;;;;23.47;16.57;;;3.90;99.90;;;;;;5000417;28;20916;-77
2021/01/18 03:58:55;;;;;;;18.83;13.10;;;3.80;99.90;;;;;;5011062;28;20799;-77
2021/01/18 04:01:20;;;;;;;22.13;12.70;;;3.80;99.90;;;;;;5009893;28;20569;-78
2021/01/18 04:03:46;;;;;;;20.83;13.30;;;3.80;99.90;;;;;;4982342;28;20217;-77
2021/01/18 04:06:12;;;;;;;16.47;12.63;;;3.90;99.90;;;;;;5004398;28;20174;-77
2021/01/18 04:08:37;;;;;;;22.83;13.80;;;4.00;99.90;;;;;;5010523;28;20224;-77
2021/01/18 04:11:03;;;;;;;18.53;13.63;;;3.90;99.90;;;;;;5007394;28;20186;-78
2021/01/18 04:13:29;;;;;;;19.97;14.00;;;3.90;99.90;;;;;;4990806;28;20237;-77
2021/01/18 04:15:54;;;;;;;21.80;14.30;;;3.90;99.90;;;;;;4993238;28;20254;-78
2021/01/18 04:18:20;;;;;;;21.70;13.27;;;3.90;99.90;;;;;;5010848;28;20213;-78
2021/01/18 04:20:46;;;;;;;23.50;14.00;;;3.90;99.90;;;;;;5010876;28;20190;-78
2021/01/18 04:23:12;;;;;;;24.97;13.40;;;3.90;99.90;;;;;;4991009;28;20214;-77
2021/01/18 04:25:37;;;;;;;24.53;14.70;;;3.90;99.90;;;;;;4980230;28;20417;-79
2021/01/18 04:28:05;;;;;;;23.23;15.13;;;4.00;99.90;;;;;;5010495;28;20240;-78
2021/01/18 04:30:35;;;;;;;28.40;13.48;;;4.00;99.90;;;;;;5010588;28;20240;-79
2021/01/18 04:33:06;;;;;;;25.45;14.45;;;4.00;99.90;;;;;;4998382;28;20238;-78
2021/01/18 04:35:34;;;;;;;23.98;16.45;;;4.10;99.90;;;;;;4995353;28;20281;-77
2021/01/18 04:38:00;;;;;;;21.13;13.63;;;3.90;99.90;;;;;;5010659;28;20217;-77
2021/01/18 04:40:28;;;;;;;26.77;14.47;;;3.90;99.90;;;;;;5000989;28;20662;-77
2021/01/18 04:42:54;;;;;;;21.02;14.43;;;4.00;99.90;;;;;;4991109;28;20752;-78
2021/01/18 04:45:22;;;;;;;21.42;13.38;;;3.90;99.90;;;;;;4999502;28;20202;-77
2021/01/18 04:47:51;;;;;;;23.67;15.70;;;3.90;99.90;;;;;;4994136;28;20218;-77
2021/01/18 04:50:18;;;;;;;19.80;13.80;;;4.00;99.90;;;;;;4998109;28;20197;-78
2021/01/18 04:52:44;;;;;;;17.02;13.70;;;4.00;99.90;;;;;;5010415;28;20221;-77
2021/01/18 04:55:34;;;;;;;25.10;14.73;;;4.00;99.90;;;;;;4991303;28;20246;-77
2021/01/18 04:58:08;;;;;;;23.20;13.93;;;4.00;99.90;;;;;;4994112;28;20741;-77
2021/01/18 05:00:35;;;;;;;17.73;13.30;;;4.00;99.90;;;;;;5014499;28;20193;-77
2021/01/18 05:03:06;;;;;;;26.75;14.82;;;3.90;99.90;;;;;;5012862;28;20289;-77
2021/01/18 05:05:44;;;;;;;19.42;13.40;;;4.00;99.90;;;;;;4976989;28;20199;-77
2021/01/18 05:08:36;;;;;;;26.65;13.93;;;4.00;99.90;;;;;;5002497;28;20248;-77
2021/01/18 05:11:02;;;;;;;30.05;13.88;;;4.00;99.90;;;;;;4987047;28;20221;-78
2021/01/18 05:13:30;;;;;;;20.77;13.82;;;4.00;99.90;;;;;;5011843;28;20213;-77
2021/01/18 05:15:59;;;;;;;26.25;13.52;;;4.00;99.90;;;;;;5014085;28;20220;-77
2021/01/18 05:18:32;;;;;;;19.48;13.15;;;4.00;99.90;;;;;;5003796;28;20294;-77
2021/01/18 05:21:05;;;;;;;18.17;12.95;;;3.90;99.90;;;;;;4994325;28;20210;-77
2021/01/18 05:23:43;;;;;;;22.73;12.48;;;4.00;99.90;;;;;;5010414;28;20653;-77
2021/01/18 05:26:15;;;;;;;24.33;13.00;;;3.90;99.90;;;;;;5013879;28;20533;-77
2021/01/18 05:28:48;;;;;;;23.38;13.93;;;3.90;99.90;;;;;;4998310;28;20531;-77
2021/01/18 05:31:26;;;;;;;23.85;15.25;;;3.90;99.90;;;;;;5011762;28;20198;-77
2021/01/18 05:33:59;;;;;;;21.90;12.40;;;3.80;99.90;;;;;;4993554;28;20210;-77
2021/01/18 05:36:38;;;;;;;23.92;12.82;;;3.90;99.90;;;;;;4996782;28;20185;-77
2021/01/18 05:39:18;;;;;;;19.45;13.20;;;4.00;99.90;;;;;;5013223;28;20209;-77
2021/01/18 05:41:46;;;;;;;19.00;13.23;;;4.10;99.90;;;;;;5011290;28;20235;-77
2021/01/18 05:44:12;;;;;;;25.60;14.73;;;4.00;99.90;;;;;;5013389;28;20273;-77
2021/01/18 05:46:40;;;;;;;23.93;14.37;;;4.00;99.90;;;;;;5006341;28;20315;-77
2021/01/18 05:49:11;;;;;;;22.33;12.02;;;4.10;99.90;;;;;;4994653;28;20430;-77
2021/01/18 05:51:38;;;;;;;23.48;14.88;;;4.00;99.90;;;;;;5012936;28;20166;-77
2021/01/18 05:54:05;;;;;;;21.33;11.40;;;4.10;99.90;;;;;;5012830;28;20205;-77
2021/01/18 05:56:40;;;;;;;21.65;14.23;;;4.10;99.90;;;;;;4993167;28;20534;-78
2021/01/18 05:59:20;;;;;;;27.05;13.32;;;4.10;99.90;;;;;;4993120;28;20186;-77
2021/01/18 06:01:47;;;;;;;20.17;12.52;;;4.10;99.90;;;;;;4973353;28;20174;-77
2021/01/18 06:04:28;;;;;;;17.42;12.13;;;4.10;99.90;;;;;;4974273;28;20191;-77
2021/01/18 06:06:56;;;;;;;21.73;11.70;;;4.10;99.90;;;;;;5012207;28;20217;-77
2021/01/18 06:09:24;;;;;;;30.48;12.35;;;4.00;99.90;;;;;;5003006;28;20202;-77
2021/01/18 06:11:49;;;;;;;22.45;13.18;;;4.00;99.90;;;;;;5005893;28;20221;-77
2021/01/18 06:14:18;;;;;;;22.00;13.57;;;4.10;99.90;;;;;;5005388;28;20573;-77
2021/01/18 06:16:47;;;;;;;19.58;12.13;;;4.10;99.90;;;;;;4992237;28;20767;-77
2021/01/18 06:19:21;;;;;;;20.83;12.32;;;4.10;99.90;;;;;;4998476;28;20228;-77
2021/01/18 06:21:47;;;;;;;18.98;12.05;;;4.00;99.90;;;;;;5011848;28;20193;-77
2021/01/18 06:24:35;;;;;;;21.75;12.77;;;4.00;99.90;;;;;;4998223;28;20197;-77
2021/01/18 06:27:01;;;;;;;21.38;12.90;;;4.00;99.90;;;;;;5001093;28;20206;-77
2021/01/18 06:29:38;;;;;;;21.02;13.90;;;4.00;99.90;;;;;;5012389;28;20221;-77
2021/01/18 06:32:06;;;;;;;19.73;12.02;;;4.00;99.90;;;;;;5001806;28;20202;-77
2021/01/18 06:34:32;;;;;;;21.25;13.52;;;4.00;99.90;;;;;;4992360;28;20261;-77
2021/01/18 06:36:58;;;;;;;15.17;11.67;;;4.10;99.90;;;;;;4999686;28;20712;-77
2021/01/18 06:39:28;;;;;;;24.48;13.07;;;4.10;99.90;;;;;;5011290;28;20421;-77
2021/01/18 06:42:03;;;;;;;18.50;13.40;;;4.10;99.90;;;;;;5002986;28;20652;-77
2021/01/18 06:44:37;;;;;;;23.48;12.98;;;4.10;99.90;;;;;;4991411;28;20224;-77
2021/01/18 06:47:25;;;;;;;19.45;12.40;;;4.10;99.90;;;;;;4998393;28;20245;-77
2021/01/18 06:49:54;;;;;;;22.60;12.23;;;4.10;99.90;;;;;;5010922;28;20190;-77
2021/01/18 06:52:28;;;;;;;19.63;13.27;;;4.10;99.90;;;;;;4994171;28;20218;-77
2021/01/18 06:55:05;;;;;;;27.75;14.23;;;4.10;99.90;;;;;;4990994;28;20186;-77
2021/01/18 06:57:55;;;;;;;29.17;16.10;;;4.10;99.90;;;;;;4988627;28;20577;-77
2021/01/18 07:00:21;;;;;;;32.38;15.70;;;4.00;99.90;;;;;;4991341;28;20190;-77
2021/01/18 07:02:56;;;;;;;33.43;16.20;;;4.00;99.90;;;;;;4991012;28;20720;-77
2021/01/18 07:05:36;;;;;;;33.40;17.92;;;4.00;99.90;;;;;;4994186;28;20204;-77
2021/01/18 07:08:12;;;;;;;32.15;18.48;;;4.10;99.90;;;;;;5010499;28;20242;-77
2021/01/18 07:10:40;;;;;;;37.38;17.50;;;4.10;99.90;;;;;;5002879;28;20194;-77
2021/01/18 07:13:07;;;;;;;25.88;16.63;;;4.10;99.90;;;;;;4990547;28;20300;-79
2021/01/18 07:15:40;;;;;;;35.03;19.10;;;4.10;99.90;;;;;;4996811;28;20212;-78
2021/01/18 07:18:11;;;;;;;30.88;17.80;;;4.10;99.90;;;;;;5010767;28;20213;-77
2021/01/18 07:20:45;;;;;;;28.08;17.10;;;4.10;99.90;;;;;;5008563;28;20202;-77
2021/01/18 07:23:11;;;;;;;25.33;17.45;;;4.10;99.90;;;;;;5008620;28;20212;-78
2021/01/18 07:25:48;;;;;;;26.60;15.60;;;4.10;99.90;;;;;;4994034;28;20204;-78
2021/01/18 07:28:18;;;;;;;36.15;16.70;;;4.10;99.90;;;;;;4990884;28;20210;-77
2021/01/18 07:30:45;;;;;;;40.58;18.38;;;4.10;99.90;;;;;;4993826;28;20217;-77
2021/01/18 07:33:16;;;;;;;34.33;15.82;;;4.00;99.90;;;;;;4993406;28;20563;-77
2021/01/18 07:35:44;;;;;;;29.67;17.13;;;4.10;99.90;;;;;;5009921;28;20194;-77
2021/01/18 07:38:20;;;;;;;33.90;18.57;;;4.10;99.90;;;;;;4986154;28;679742;-77
2021/01/18 07:41:08;;;;;;;31.50;17.95;;;4.10;99.90;;;;;;5010910;28;20197;-76
2021/01/18 07:43:45;;;;;;;32.47;18.33;;;4.10;99.90;;;;;;4971648;28;20713;-77
2021/01/18 07:46:26;;;;;;;33.22;17.60;;;4.10;99.90;;;;;;5006329;28;20214;-78
2021/01/18 07:48:53;;;;;;;36.13;18.42;;;4.10;99.90;;;;;;5010375;28;20584;-78
2021/01/18 07:51:20;;;;;;;29.83;18.30;;;4.10;99.90;;;;;;4974857;28;20277;-78
2021/01/18 07:53:46;;;;;;;24.92;17.90;;;4.00;99.90;;;;;;4990480;28;20207;-78
2021/01/18 07:56:11;;;;;;;30.08;17.23;;;4.00;99.90;;;;;;5007392;28;20190;-77
2021/01/18 07:58:41;;;;;;;34.77;17.03;;;4.10;99.90;;;;;;4996928;28;20217;-77
2021/01/18 08:01:08;;;;;;;30.40;16.70;;;4.10;99.90;;;;;;4996803;28;20209;-77
2021/01/18 08:03:34;;;;;;;30.75;17.48;;;4.20;99.90;;;;;;4992719;28;20245;-77
2021/01/18 08:06:09;;;;;;;32.53;15.48;;;4.10;99.90;;;;;;5005122;28;20233;-78
2021/01/18 08:08:35;;;;;;;25.40;15.95;;;4.20;99.90;;;;;;4991018;28;20206;-78
2021/01/18 08:11:07;;;;;;;27.83;16.60;;;4.20;99.90;;;;;;4995199;28;20228;-77
2021/01/18 08:13:40;;;;;;;33.30;16.13;;;4.10;99.90;;;;;;5008991;28;20210;-79
2021/01/18 08:16:15;;;;;;;28.95;16.33;;;4.20;99.90;;;;;;4998251;28;20191;-77
2021/01/18 08:19:02;;;;;;;38.53;16.38;;;4.20;99.90;;;;;;4973693;28;20205;-77
2021/01/18 08:21:34;;;;;;;29.88;15.43;;;4.20;99.90;;;;;;4974117;28;20209;-77
2021/01/18 08:24:04;;;;;;;23.00;15.50;;;4.20;99.90;;;;;;4971448;28;20689;-76
2021/01/18 08:26:54;;;;;;;21.95;14.77;;;4.30;99.90;;;;;;4975298;28;20202;-77
2021/01/18 08:29:46;;;;;;;25.60;13.68;;;4.20;99.90;;;;;;4998154;28;20177;-76
2021/01/18 08:32:21;;;;;;;25.98;14.35;;;4.20;99.90;;;;;;4998637;28;20217;-77
2021/01/18 08:34:53;;;;;;;24.20;13.60;;;4.20;99.90;;;;;;5014466;28;20193;-76
2021/01/18 08:37:19;;;;;;;25.83;13.85;;;4.30;99.90;;;;;;5007186;28;20247;-77
2021/01/18 08:39:52;;;;;;;22.88;13.18;;;4.30;99.90;;;;;;4998096;28;20185;-76
2021/01/18 08:42:28;;;;;;;22.83;13.00;;;4.30;99.90;;;;;;5010012;28;20701;-78
2021/01/18 08:45:04;;;;;;;16.40;11.05;;;4.30;99.90;;;;;;4997701;28;20209;-77
2021/01/18 08:47:45;;;;;;;19.75;12.75;;;4.40;99.90;;;;;;4994196;28;20210;-77
2021/01/18 08:50:26;;;;;;;19.98;12.40;;;4.40;99.90;;;;;;4993014;28;20181;-77
2021/01/18 08:53:22;;;;;;;27.27;12.43;;;4.50;99.90;;;;;;4993207;28;20238;-77
2021/01/18 08:56:11;;;;;;;19.45;11.73;;;4.40;99.90;;;;;;4966870;28;20232;-76
2021/01/18 08:58:43;;;;;;;17.60;11.40;;;4.50;99.90;;;;;;5009997;28;20198;-77
2021/01/18 09:01:15;;;;;;;20.95;11.20;;;4.50;99.90;;;;;;4994143;28;20186;-77
2021/01/18 09:03:41;;;;;;;20.70;12.45;;;4.50;99.90;;;;;;4996994;28;20608;-76
2021/01/18 09:06:08;;;;;;;17.80;10.23;;;4.50;99.90;;;;;;5003432;28;20206;-77
2021/01/18 09:08:34;;;;;;;14.18;10.13;;;4.50;99.90;;;;;;4982966;28;20523;-76
2021/01/18 09:11:01;;;;;;;19.80;11.17;;;4.60;99.90;;;;;;4997221;28;20202;-77
2021/01/18 09:13:29;;;;;;;16.45;10.60;;;4.60;99.90;;;;;;4992899;28;20477;-77
2021/01/18 09:15:59;;;;;;;17.88;9.63;;;4.60;99.90;;;;;;5008366;28;20724;-76
2021/01/18 09:18:26;;;;;;;17.33;10.52;;;4.50;99.90;;;;;;4995951;28;20692;-77
2021/01/18 09:20:56;;;;;;;14.45;8.80;;;4.60;99.90;;;;;;4994246;28;20201;-76
2021/01/18 09:23:25;;;;;;;12.95;8.43;;;4.50;99.90;;;;;;4996106;28;20293;-76
2021/01/18 09:26:00;;;;;;;16.95;8.68;;;4.60;99.90;;;;;;4993611;28;20584;-77
2021/01/18 09:28:26;;;;;;;13.43;8.23;;;4.70;99.90;;;;;;5007711;28;20568;-76
2021/01/18 09:30:52;;;;;;;13.05;7.90;;;4.70;99.90;;;;;;5012554;28;20202;-77
2021/01/18 09:33:17;;;;;;;17.60;7.63;;;4.70;99.90;;;;;;4998064;28;20219;-77
2021/01/18 09:35:44;;;;;;;13.87;6.70;;;4.80;99.90;;;;;;4993583;28;20197;-76
2021/01/18 09:38:12;;;;;;;10.05;7.40;;;4.80;99.90;;;;;;5013279;28;20222;-77
2021/01/18 09:40:43;;;;;;;16.38;7.75;;;4.70;99.90;;;;;;5013134;28;20525;-77
2021/01/18 09:43:10;;;;;;;9.15;6.25;;;4.70;99.90;;;;;;4991876;28;20309;-77
2021/01/18 09:45:37;;;;;;;12.00;6.60;;;4.60;99.90;;;;;;5001581;28;20659;-77
2021/01/18 09:48:07;;;;;;;13.93;6.07;;;4.60;99.90;;;;;;5012532;28;20632;-76
2021/01/18 09:50:35;;;;;;;9.93;6.20;;;4.60;99.90;;;;;;5011293;28;20170;-77
2021/01/18 09:53:09;;;;;;;11.73;6.85;;;4.60;99.90;;;;;;5011959;28;20218;-77
2021/01/18 09:55:40;;;;;;;14.68;7.53;;;4.60;99.90;;;;;;4987268;28;20167;-77
2021/01/18 09:58:12;;;;;;;10.80;6.82;;;4.60;99.90;;;;;;4993077;28;20689;-77
2021/01/18 10:00:40;;;;;;;14.48;6.55;;;4.70;99.90;;;;;;5000630;28;20181;-76
2021/01/18 10:03:07;;;;;;;12.65;5.68;;;4.70;99.90;;;;;;5011787;28;20229;-76
2021/01/18 10:05:39;;;;;;;14.05;5.68;;;4.70;99.90;;;;;;4997237;28;20190;-77
2021/01/18 10:08:16;;;;;;;12.52;5.60;;;4.70;99.90;;;;;;5010266;23;20237;-77
2021/01/18 10:10:44;;;;;;;16.77;6.00;;;4.70;99.90;;;;;;5046866;28;20176;-77
2021/01/18 10:13:17;;;;;;;14.48;5.80;;;4.70;99.90;;;;;;5032106;28;20216;-77
2021/01/18 10:15:44;;;;;;;14.40;5.80;;;4.80;99.90;;;;;;5017655;28;20193;-77
2021/01/18 10:18:28;;;;;;;12.77;5.45;;;4.70;99.90;;;;;;4994400;28;20218;-77
2021/01/18 10:20:54;;;;;;;11.05;5.03;;;4.70;99.90;;;;;;5009890;28;20235;-76
2021/01/18 10:23:20;;;;;;;17.55;6.13;;;4.80;99.90;;;;;;5009783;28;20213;-77
2021/01/18 10:25:46;;;;;;;11.87;4.40;;;4.80;99.90;;;;;;5008519;28;20228;-77
2021/01/18 10:28:19;;;;;;;15.40;5.85;;;4.90;99.90;;;;;;5010466;28;20272;-78
2021/01/18 10:30:46;;;;;;;10.68;4.68;;;4.90;99.90;;;;;;5000734;28;20174;-77
2021/01/18 10:33:16;;;;;;;12.40;4.90;;;5.00;99.90;;;;;;5015031;28;20205;-76
2021/01/18 10:35:43;;;;;;;7.45;4.22;;;5.00;99.90;;;;;;5012352;28;20587;-76
2021/01/18 10:38:24;;;;;;;11.10;4.13;;;5.20;99.90;;;;;;5016469;28;20707;-77
2021/01/18 10:41:04;;;;;;;9.20;4.75;;;5.30;99.90;;;;;;5031290;28;20625;-77
2021/01/18 10:43:30;;;;;;;10.02;4.50;;;5.30;99.90;;;;;;5026972;28;20216;-77
2021/01/18 10:45:57;;;;;;;7.53;3.67;;;5.30;99.90;;;;;;5030781;28;20772;-77
2021/01/18 10:48:30;;;;;;;8.32;3.72;;;5.40;99.90;;;;;;5031099;28;20462;-76
2021/01/18 10:51:02;;;;;;;8.18;3.88;;;5.50;99.90;;;;;;5029742;28;20185;-77
2021/01/18 10:53:32;;;;;;;10.80;4.07;;;5.70;99.90;;;;;;5014304;28;20218;-76
2021/01/18 10:56:10;;;;;;;8.57;4.70;;;5.80;99.90;;;;;;4993557;28;20317;-76
2021/01/18 10:58:38;;;;;;;8.93;3.90;;;5.90;99.90;;;;;;5011888;28;20212;-76
2021/01/18 11:01:11;;;;;;;7.30;3.08;;;5.90;99.90;;;;;;4993914;28;20170;-76
2021/01/18 11:03:38;;;;;;;8.95;3.95;;;5.90;99.90;;;;;;5010620;28;20221;-77
2021/01/18 11:06:11;;;;;;;7.63;4.00;;;6.10;99.90;;;;;;5011536;28;20201;-76
2021/01/18 11:08:37;;;;;;;7.22;3.15;;;6.00;99.90;;;;;;5031603;28;20307;-76
2021/01/18 11:11:19;;;;;;;11.40;4.00;;;5.90;99.90;;;;;;5031446;28;20248;-76
2021/01/18 11:13:45;;;;;;;7.40;3.10;;;5.80;99.90;;;;;;4990878;28;20504;-76
2021/01/18 11:16:15;;;;;;;15.10;4.40;;;5.80;99.90;;;;;;4992651;28;20522;-76
2021/01/18 11:18:43;;;;;;;10.63;4.07;;;5.70;99.90;;;;;;5029249;28;20619;-76
2021/01/18 11:21:09;;;;;;;14.85;4.85;;;5.80;99.90;;;;;;5011265;28;20170;-76
2021/01/18 11:23:35;;;;;;;9.00;4.27;;;5.80;99.90;;;;;;5009260;28;20639;-76
2021/01/18 11:26:00;;;;;;;8.80;3.70;;;5.70;99.90;;;;;;5015767;28;20412;-77
2021/01/18 11:28:26;;;;;;;10.50;4.40;;;5.60;99.90;;;;;;5030574;28;20244;-76
2021/01/18 11:30:52;;;;;;;12.80;4.77;;;5.50;99.90;;;;;;5026593;28;20589;-75
2021/01/18 11:33:18;;;;;;;11.13;3.90;;;5.60;99.90;;;;;;5010733;28;21030;-77
2021/01/18 11:35:45;;;;;;;12.30;3.63;;;5.60;99.90;;;;;;5010960;28;20170;-75
2021/01/18 11:38:12;;;;;;;12.15;5.07;;;5.70;99.90;;;;;;5028385;28;20228;-75
2021/01/18 11:40:38;;;;;;;14.27;4.28;;;5.70;99.90;;;;;;5001201;28;20190;-76
2021/01/18 11:43:04;;;;;;;12.77;3.95;;;5.70;99.90;;;;;;5010264;28;20264;-76
2021/01/18 11:45:30;;;;;;;8.83;3.20;;;5.70;99.90;;;;;;5010848;28;20193;-76
2021/01/18 11:47:56;;;;;;;8.67;4.50;;;5.70;99.90;;;;;;5028207;28;20814;-77
2021/01/18 11:50:22;;;;;;;10.53;3.93;;;5.80;99.90;;;;;;5031352;28;20193;-76
2021/01/18 11:52:51;;;;;;;9.57;3.80;;;5.80;99.90;;;;;;5013385;28;20275;-76
2021/01/18 11:55:18;;;;;;;6.60;3.70;;;5.70;99.90;;;;;;5011494;28;20208;-77
2021/01/18 11:57:45;;;;;;;10.55;3.75;;;5.70;99.90;;;;;;4997103;28;20352;-76
2021/01/18 12:00:18;;;;;;;6.63;3.58;;;5.80;99.90;;;;;;5012487;28;20188;-76
2021/01/18 12:02:43;;;;;;;7.75;3.00;;;5.80;99.90;;;;;;5024807;28;20224;-76
2021/01/18 12:05:09;;;;;;;6.93;3.10;;;5.80;99.90;;;;;;5025072;28;20198;-76
2021/01/18 12:07:35;;;;;;;5.80;3.27;;;5.70;99.90;;;;;;5012112;28;20216;-76
2021/01/18 12:10:01;;;;;;;7.33;3.70;;;5.80;99.90;;;;;;5017215;28;20888;-76
2021/01/18 12:12:27;;;;;;;8.27;3.53;;;5.80;99.90;;;;;;5028483;28;20286;-76
2021/01/18 12:14:52;;;;;;;5.87;3.50;;;5.80;99.90;;;;;;5024235;28;20444;-77
2021/01/18 12:17:18;;;;;;;8.90;3.70;;;5.80;99.90;;;;;;5013365;28;20213;-76
2021/01/18 12:19:46;;;;;;;12.17;3.80;;;5.80;99.90;;;;;;5024021;28;20223;-75
2021/01/18 12:22:15;;;;;;;9.27;3.58;;;5.80;99.90;;;;;;4994815;28;20751;-76
2021/01/18 12:24:41;;;;;;;8.52;3.88;;;5.70;99.90;;;;;;5002757;28;20204;-77
2021/01/18 12:27:09;;;;;;;11.57;3.97;;;5.70;99.90;;;;;;5014017;28;20202;-76
2021/01/18 12:29:34;;;;;;;13.68;3.80;;;5.70;99.90;;;;;;5030732;28;20722;-76
2021/01/18 12:32:00;;;;;;;14.20;4.33;;;5.80;99.90;;;;;;5034161;28;20209;-76
2021/01/18 12:34:26;;;;;;;8.47;3.40;;;5.80;99.90;;;;;;5002849;28;20209;-77
2021/01/18 12:36:56;;;;;;;9.60;4.43;;;5.80;99.90;;;;;;5031193;28;20209;-77
2021/01/18 12:39:22;;;;;;;9.40;3.90;;;5.90;99.90;;;;;;5029683;28;20197;-76
2021/01/18 12:41:51;;;;;;;10.70;3.47;;;5.90;99.90;;;;;;5034294;28;20169;-76
2021/01/18 12:44:17;;;;;;;10.25;4.47;;;5.90;99.90;;;;;;5022982;28;20531;-76
2021/01/18 12:46:43;;;;;;;10.43;4.40;;;6.00;99.90;;;;;;5014155;28;20201;-76
2021/01/18 12:49:09;;;;;;;11.70;3.77;;;5.90;99.90;;;;;;5015408;28;20244;-76
2021/01/18 12:51:35;;;;;;;9.25;4.30;;;5.90;99.90;;;;;;5019641;28;20655;-77
2021/01/18 12:54:00;;;;;;;10.83;3.67;;;5.90;99.90;;;;;;5032985;28;20213;-77
2021/01/18 12:56:28;;;;;;;5.67;3.03;;;6.00;99.90;;;;;;5012535;28;20198;-76
2021/01/18 12:58:55;;;;;;;11.38;4.20;;;6.10;99.90;;;;;;5012885;28;20214;-75